Terminal Aerodrome Forecast
Issued by NWS

Current Version | Previous Version | Graphics & Text | Print | Product List | Glossary On
Versions: 1 2 3 4 5 6 7 8 9 10 11 12 13 14 15 16 17 18 19 20 21 22 23
000
FTUS41 KRNK 022333
TAFLWB
TAF
KLWB 022333Z 0300/0324 29008G14KT P6SM OVC018
     FM030200 29003KT P6SM BKN030
     FM030600 00000KT P6SM SCT080
     FM031500 30007KT P6SM BKN090=

USA.gov is the U.S. government's official web portal to all federal, state and local government web resources and services.